Terminal Aerodrome Forecast
Issued by NWS

Home | Current Version | Previous Version | Graphics & Text | Print | Product List | Glossary On
Versions: 1 2 3 4 5 6 7 8 9 10 11 12 13 14
641
FTUS43 KICT 150535
TAFCNU
TAF
KCNU 150535Z 1506/1606 19009KT P6SM SCT200
     FM150800 20014G24KT 6SM BR SCT008 WS020/24055KT
     FM151300 20016G24KT P6SM OVC110
     FM152100 25017G25KT P6SM BKN200
     FM152300 31015KT P6SM BKN200
     FM160300 35017G25KT P6SM BKN150=

USA.gov is the U.S. government's official web portal to all federal, state and local government web resources and services.